createdAt,value
2019-01-21T00:01:11.110Z,63.50
2019-01-21T00:03:43.298Z,63.20
2019-01-21T00:06:15.901Z,63.80
2019-01-21T00:08:48.033Z,63.50
2019-01-21T00:11:20.809Z,63.30
2019-01-21T00:13:54.007Z,62.90
2019-01-21T00:16:26.332Z,62.50
2019-01-21T00:18:58.510Z,62.20
2019-01-21T00:21:30.589Z,61.80
2019-01-21T00:24:02.885Z,62.00
2019-01-21T00:26:35.157Z,61.00
2019-01-21T00:29:10.300Z,61.10
2019-01-21T00:31:43.099Z,60.80
2019-01-21T00:34:15.398Z,60.40
2019-01-21T00:36:48.150Z,59.90
2019-01-21T00:39:20.449Z,60.00
2019-01-21T00:41:53.005Z,59.70
2019-01-21T00:44:25.347Z,59.40
2019-01-21T00:46:58.188Z,59.60
2019-01-21T00:49:30.675Z,59.70
2019-01-21T00:52:03.151Z,59.40
2019-01-21T00:54:38.171Z,58.90
2019-01-21T00:57:10.532Z,59.00
2019-01-21T00:59:42.916Z,58.40
2019-01-21T01:02:18.120Z,58.30
2019-01-21T01:04:50.614Z,58.60
2019-01-21T01:07:23.489Z,57.90
2019-01-21T01:09:55.777Z,58.00
2019-01-21T01:12:28.622Z,58.60
2019-01-21T01:15:01.433Z,59.00
2019-01-21T01:17:37.305Z,59.30
2019-01-21T01:20:09.435Z,59.10
2019-01-21T01:22:42.148Z,59.20
2019-01-21T01:25:14.602Z,58.80
2019-01-21T01:27:47.380Z,58.30
2019-01-21T01:30:20.296Z,58.40
2019-01-21T01:32:53.190Z,58.00
2019-01-21T01:35:25.776Z,58.00
2019-01-21T01:38:00.513Z,58.00
2019-01-21T01:40:34.533Z,58.10
2019-01-21T01:43:07.216Z,57.60
2019-01-21T01:45:42.739Z,57.70
2019-01-21T01:48:15.437Z,57.40
2019-01-21T01:50:48.812Z,57.40
2019-01-21T01:53:21.482Z,57.50
2019-01-21T01:55:53.958Z,57.40
2019-01-21T01:58:26.420Z,57.20
2019-01-21T02:00:58.904Z,57.30
2019-01-21T02:03:33.254Z,57.50
2019-01-21T02:06:05.712Z,57.40
2019-01-21T02:08:40.520Z,57.80
2019-01-21T02:11:13.157Z,59.00
2019-01-21T02:13:45.684Z,58.70
2019-01-21T02:16:18.676Z,59.30
2019-01-21T02:18:50.960Z,59.40
2019-01-21T02:21:25.318Z,59.60
2019-01-21T02:24:02.487Z,60.90
2019-01-21T02:26:42.064Z,60.80
2019-01-21T02:29:56.124Z,61.60
2019-01-21T02:32:47.350Z,62.70
2019-01-21T02:35:50.108Z,63.30
2019-01-21T02:39:29.617Z,63.80
2019-01-21T02:42:24.722Z,64.60
2019-01-21T02:45:23.819Z,65.00
2019-01-21T02:48:41.058Z,65.50
2019-01-21T02:51:40.172Z,65.30
2019-01-21T02:54:34.560Z,64.70
2019-01-21T02:57:31.395Z,64.50
2019-01-21T03:00:40.001Z,64.20
2019-01-21T03:03:44.552Z,63.80
2019-01-21T03:06:58.479Z,63.70
2019-01-21T03:09:54.092Z,63.20
2019-01-21T03:13:08.925Z,63.30
2019-01-21T03:16:43.767Z,63.30
2019-01-21T03:19:46.789Z,62.70
2019-01-21T03:23:08.760Z,63.20
2019-01-21T03:26:06.974Z,63.50
2019-01-21T03:29:22.113Z,64.30
2019-01-21T03:32:32.607Z,64.10
2019-01-21T03:35:40.588Z,64.60
2019-01-21T03:38:53.800Z,65.20
2019-01-21T03:41:55.631Z,65.80
2019-01-21T03:44:59.111Z,65.90
2019-01-21T03:47:42.188Z,65.90
2019-01-21T03:51:07.293Z,65.80
2019-01-21T03:54:23.157Z,65.50
2019-01-21T03:57:10.318Z,65.80
2019-01-21T03:59:49.593Z,65.30
2019-01-21T04:02:59.322Z,65.10
2019-01-21T04:06:30.031Z,65.10
2019-01-21T04:09:36.074Z,65.50
2019-01-21T04:12:46.600Z,65.40
2019-01-21T04:15:52.915Z,65.10
2019-01-21T04:18:47.186Z,65.20
2019-01-21T04:21:40.555Z,64.50
2019-01-21T04:24:50.635Z,62.70
2019-01-21T04:27:47.149Z,61.80
2019-01-21T04:30:55.024Z,62.20
2019-01-21T04:34:04.905Z,63.50
2019-01-21T04:37:15.040Z,63.80
2019-01-21T04:40:13.202Z,64.20
2019-01-21T04:43:05.817Z,64.30
2019-01-21T04:45:54.916Z,64.50
2019-01-21T04:48:50.585Z,64.60
2019-01-21T04:52:21.942Z,64.80
2019-01-21T04:55:06.759Z,64.60
2019-01-21T04:58:02.521Z,65.10
2019-01-21T05:00:57.713Z,64.90
2019-01-21T05:03:42.705Z,64.70
2019-01-21T05:06:42.276Z,64.50
2019-01-21T05:09:27.048Z,65.00
2019-01-21T05:12:34.740Z,64.60
2019-01-21T05:15:59.552Z,64.70
2019-01-21T05:18:48.577Z,64.30
2019-01-21T05:21:44.996Z,63.70
2019-01-21T05:24:43.760Z,63.60
2019-01-21T05:28:00.337Z,64.00
2019-01-21T05:31:24.365Z,63.90
2019-01-21T05:34:10.357Z,64.60
2019-01-21T05:37:05.150Z,63.20
2019-01-21T05:40:12.826Z,63.20
2019-01-21T05:43:18.244Z,63.10
2019-01-21T05:46:06.135Z,63.10
2019-01-21T05:49:08.987Z,62.90
2019-01-21T05:52:13.811Z,63.10
2019-01-21T05:55:15.282Z,63.20
2019-01-21T05:58:33.574Z,63.40
2019-01-21T06:01:30.927Z,63.70
2019-01-21T06:04:53.417Z,63.80
2019-01-21T06:08:17.560Z,64.00
2019-01-21T06:11:14.065Z,63.80
2019-01-21T06:14:33.896Z,64.00
2019-01-21T06:17:28.762Z,63.80
2019-01-21T06:20:40.933Z,63.30
2019-01-21T06:23:40.966Z,63.20
2019-01-21T06:26:47.667Z,63.90
2019-01-21T06:29:56.765Z,64.30
2019-01-21T06:32:58.229Z,64.60
2019-01-21T06:35:56.313Z,64.70
2019-01-21T06:38:49.806Z,64.90
2019-01-21T06:41:51.742Z,65.10
2019-01-21T06:45:07.709Z,64.30
2019-01-21T06:48:27.923Z,64.80
2019-01-21T06:51:30.260Z,64.70
2019-01-21T06:54:27.765Z,64.80
2019-01-21T06:57:51.750Z,65.30
2019-01-21T07:00:44.366Z,65.00
2019-01-21T07:03:53.010Z,65.40
2019-01-21T07:07:06.807Z,65.30
2019-01-21T07:10:27.817Z,65.80
2019-01-21T07:13:48.741Z,66.00
2019-01-21T07:17:06.862Z,66.50
2019-01-21T07:19:59.505Z,66.50
2019-01-21T07:23:11.955Z,66.20
2019-01-21T07:26:29.940Z,66.30
2019-01-21T07:29:37.421Z,66.20
2019-01-21T07:32:33.433Z,66.30
2019-01-21T07:35:34.976Z,66.20
2019-01-21T07:38:59.036Z,65.90
2019-01-21T07:41:46.842Z,65.70
2019-01-21T07:44:56.950Z,66.10
2019-01-21T07:48:18.192Z,65.60
2019-01-21T07:51:51.221Z,64.90
2019-01-21T07:54:57.509Z,65.20
2019-01-21T07:57:59.945Z,65.60
2019-01-21T08:01:18.233Z,65.40
2019-01-21T08:04:31.470Z,64.70
2019-01-21T08:07:30.684Z,64.60
2019-01-21T08:11:00.760Z,64.30
2019-01-21T08:14:11.741Z,64.40
2019-01-21T08:17:17.669Z,63.70
2019-01-21T08:20:32.648Z,63.50
2019-01-21T08:23:33.249Z,63.60
2019-01-21T08:27:06.442Z,63.80
2019-01-21T08:30:01.221Z,63.70
2019-01-21T08:33:17.534Z,63.50
2019-01-21T08:36:12.625Z,63.00
2019-01-21T08:39:20.599Z,62.90
2019-01-21T08:42:22.778Z,62.00
2019-01-21T08:45:22.768Z,62.10
2019-01-21T08:48:13.873Z,61.80
2019-01-21T08:51:30.315Z,62.30
2019-01-21T08:54:54.234Z,62.90
2019-01-21T08:58:05.357Z,63.40
2019-01-21T09:01:16.882Z,63.90
2019-01-21T09:04:13.206Z,63.70
2019-01-21T09:07:37.003Z,63.90
2019-01-21T09:10:32.617Z,63.60
2019-01-21T09:13:30.969Z,63.20
2019-01-21T09:16:52.305Z,63.40
2019-01-21T09:20:10.909Z,63.40
2019-01-21T09:23:08.833Z,62.70
2019-01-21T09:26:25.426Z,63.00
2019-01-21T09:29:32.636Z,63.20
2019-01-21T09:32:44.072Z,62.90
2019-01-21T09:35:58.971Z,62.50
2019-01-21T09:39:09.353Z,61.90
2019-01-21T09:42:03.888Z,61.70
2019-01-21T09:45:01.217Z,61.80
2019-01-21T09:47:30.487Z,61.40
2019-01-21T09:50:02.734Z,61.40
2019-01-21T09:52:35.465Z,61.00
2019-01-21T09:55:09.188Z,60.80
2019-01-21T09:57:42.376Z,60.20
2019-01-21T10:00:19.073Z,59.60
2019-01-21T10:02:57.462Z,59.30
2019-01-21T10:05:32.600Z,59.40
2019-01-21T10:08:40.093Z,59.00
2019-01-21T10:11:54.092Z,58.80
2019-01-21T10:14:54.574Z,58.80
2019-01-21T10:18:15.792Z,58.20
2019-01-21T10:21:43.685Z,58.20
2019-01-21T10:24:57.280Z,57.90
2019-01-21T10:28:02.521Z,58.00
2019-01-21T10:31:23.569Z,58.20
2019-01-21T10:34:34.590Z,58.40
2019-01-21T10:37:24.730Z,58.40
2019-01-21T10:40:20.919Z,58.20
2019-01-21T10:43:26.614Z,57.90
2019-01-21T10:46:10.931Z,57.60
2019-01-21T10:49:11.730Z,57.60
2019-01-21T10:52:29.411Z,57.50
2019-01-21T10:55:41.237Z,57.50
2019-01-21T10:58:22.802Z,57.20
2019-01-21T11:01:37.872Z,57.20
2019-01-21T11:04:44.171Z,57.20
2019-01-21T11:08:14.438Z,57.40
2019-01-21T11:11:14.740Z,57.80
2019-01-21T11:14:30.066Z,58.00
2019-01-21T11:17:36.119Z,58.10
2019-01-21T11:20:48.613Z,58.20
2019-01-21T11:23:54.612Z,57.60
2019-01-21T11:26:57.297Z,57.60
2019-01-21T11:29:58.806Z,57.30
2019-01-21T11:33:17.700Z,57.50
2019-01-21T11:36:41.889Z,57.40
2019-01-21T11:39:27.148Z,58.00
2019-01-21T11:42:17.668Z,58.20
2019-01-21T11:45:25.355Z,58.90
2019-01-21T11:48:31.222Z,59.10
2019-01-21T11:51:34.961Z,59.00
2019-01-21T11:54:50.416Z,58.80
2019-01-21T11:57:51.093Z,59.40
2019-01-21T12:00:43.669Z,59.60
2019-01-21T12:03:24.301Z,59.70
2019-01-21T12:06:21.402Z,59.90
2019-01-21T12:09:23.444Z,59.50
2019-01-21T12:12:35.417Z,59.20
2019-01-21T12:15:43.057Z,59.20
2019-01-21T12:18:31.978Z,58.90
2019-01-21T12:22:10.813Z,59.00
2019-01-21T12:24:52.615Z,58.20
2019-01-21T12:27:50.341Z,57.30
2019-01-21T12:31:08.343Z,57.00
2019-01-21T12:34:32.536Z,57.20
2019-01-21T12:37:42.242Z,57.50
2019-01-21T12:40:47.785Z,57.80
2019-01-21T12:43:46.412Z,57.50
2019-01-21T12:58:09.599Z,55.10
2019-01-21T13:01:14.472Z,55.10
2019-01-21T13:04:17.164Z,54.90
2019-01-21T13:07:28.642Z,54.30
2019-01-21T13:10:34.693Z,53.90
2019-01-21T13:13:47.909Z,53.90
2019-01-21T13:16:34.459Z,53.50
2019-01-21T13:19:33.609Z,52.80
2019-01-21T13:22:35.290Z,52.80
2019-01-21T13:26:02.716Z,52.40
2019-01-21T13:29:05.646Z,52.40
2019-01-21T13:32:12.225Z,51.60
2019-01-21T13:35:23.298Z,51.20
2019-01-21T13:38:51.472Z,51.50
2019-01-21T13:41:51.659Z,52.00
2019-01-21T13:47:50.813Z,51.30
2019-01-21T13:50:59.962Z,50.40
2019-01-21T13:54:04.688Z,50.70
2019-01-21T13:56:52.051Z,50.30
2019-01-21T14:00:05.669Z,50.10
2019-01-21T14:03:10.855Z,49.60
2019-01-21T14:06:19.077Z,49.40
2019-01-21T14:12:02.042Z,48.30
2019-01-21T14:18:47.939Z,47.70
2019-01-21T14:21:57.422Z,47.30
2019-01-21T14:24:50.876Z,46.70
2019-01-21T14:30:38.240Z,46.30
2019-01-21T14:33:27.049Z,46.40
2019-01-21T14:36:33.068Z,45.80
2019-01-21T14:39:40.203Z,45.50
2019-01-21T14:42:50.643Z,45.00
2019-01-21T14:46:11.926Z,45.00
2019-01-21T14:49:11.767Z,44.50
2019-01-21T14:52:41.664Z,43.90
2019-01-21T14:55:58.070Z,43.80
2019-01-21T14:59:00.151Z,43.80
2019-01-21T15:01:53.578Z,43.30
2019-01-21T15:05:03.957Z,43.60
2019-01-21T15:07:47.868Z,42.80
2019-01-21T15:11:01.792Z,42.70
2019-01-21T15:13:59.941Z,42.40
2019-01-21T15:17:04.113Z,42.10
2019-01-21T15:20:07.563Z,42.20
2019-01-21T15:23:02.594Z,42.60
2019-01-21T15:26:15.166Z,42.30
2019-01-21T15:29:10.627Z,41.90
2019-01-21T15:32:14.740Z,41.70
2019-01-21T15:35:20.501Z,41.60
2019-01-21T15:38:32.652Z,41.40
2019-01-21T15:41:55.322Z,41.40
2019-01-21T15:44:44.335Z,40.90
2019-01-21T15:47:33.153Z,40.50
2019-01-21T15:50:21.557Z,40.90
2019-01-21T15:53:06.362Z,40.50
2019-01-21T15:55:56.411Z,40.30
2019-01-21T15:59:05.267Z,40.60
2019-01-21T16:02:28.470Z,40.40
2019-01-21T16:08:03.824Z,40.00
2019-01-21T16:11:08.433Z,39.90
2019-01-21T16:13:51.129Z,40.10
2019-01-21T16:17:14.940Z,39.30
2019-01-21T16:20:00.787Z,39.30
2019-01-21T16:23:18.558Z,39.30
2019-01-21T16:26:33.286Z,38.40
2019-01-21T16:30:00.257Z,38.40
2019-01-21T16:33:13.585Z,38.60
2019-01-21T16:36:07.068Z,38.70
2019-01-21T16:39:10.056Z,38.20
2019-01-21T16:42:00.112Z,37.90
2019-01-21T16:44:32.711Z,38.80
2019-01-21T16:47:05.751Z,38.40
2019-01-21T16:49:38.181Z,38.20
2019-01-21T16:52:10.905Z,37.80
2019-01-21T16:54:43.302Z,37.50
2019-01-21T16:57:15.961Z,37.40
2019-01-21T16:59:53.396Z,37.80
2019-01-21T17:02:33.908Z,37.50
2019-01-21T17:05:08.763Z,38.00
2019-01-21T17:07:43.603Z,37.90
2019-01-21T17:10:18.086Z,37.40
2019-01-21T17:12:55.010Z,37.40
2019-01-21T17:15:30.938Z,37.20
2019-01-21T17:18:07.987Z,37.80
2019-01-21T17:23:17.552Z,36.70
2019-01-21T17:25:54.479Z,37.00
2019-01-21T17:28:32.377Z,36.80
2019-01-21T17:31:08.072Z,37.30
2019-01-21T17:36:44.896Z,36.60
2019-01-21T17:39:19.776Z,36.20
2019-01-21T17:42:20.884Z,36.30
2019-01-21T17:44:55.510Z,36.20
2019-01-21T17:47:30.189Z,35.70
2019-01-21T17:50:08.272Z,36.20
2019-01-21T17:52:40.699Z,35.90
2019-01-21T17:55:20.844Z,35.90
2019-01-21T17:57:53.217Z,36.40
2019-01-21T18:00:25.709Z,36.40
2019-01-21T18:02:58.936Z,36.60
2019-01-21T18:05:31.278Z,36.30
2019-01-21T18:11:47.643Z,35.80
2019-01-21T18:14:19.870Z,35.90
2019-01-21T18:16:52.289Z,35.40
2019-01-21T18:19:24.586Z,35.80
2019-01-21T18:21:58.758Z,35.30
2019-01-21T18:24:30.912Z,35.40
2019-01-21T18:27:05.130Z,35.20
2019-01-21T18:32:40.817Z,34.50
2019-01-21T18:38:31.131Z,35.40
2019-01-21T18:41:03.555Z,35.40
2019-01-21T18:43:35.912Z,35.50
2019-01-21T18:46:08.382Z,34.80
2019-01-21T18:48:44.489Z,35.30
2019-01-21T18:51:21.060Z,34.80
2019-01-21T18:53:53.803Z,35.40
2019-01-21T18:56:26.433Z,35.90
2019-01-21T18:58:58.725Z,36.00
2019-01-21T19:01:31.009Z,36.30
2019-01-21T19:04:03.298Z,36.40
2019-01-21T19:06:35.761Z,37.00
2019-01-21T19:09:11.441Z,36.50
2019-01-21T19:11:43.833Z,36.70
2019-01-21T19:14:16.536Z,36.60
2019-01-21T19:16:48.667Z,37.20
2019-01-21T19:19:20.857Z,37.40
2019-01-21T19:21:53.753Z,38.00
2019-01-21T19:24:26.291Z,37.60
2019-01-21T19:26:58.498Z,38.00
2019-01-21T19:29:31.008Z,37.40
2019-01-21T19:32:03.721Z,36.50
2019-01-21T19:34:36.289Z,36.40
2019-01-21T19:37:08.661Z,35.90
2019-01-21T19:39:41.270Z,36.60
2019-01-21T19:42:13.769Z,36.70
2019-01-21T19:44:46.533Z,36.00
2019-01-21T19:47:18.729Z,36.10
2019-01-21T19:49:51.027Z,35.90
2019-01-21T19:52:23.250Z,36.30
2019-01-21T19:54:56.118Z,36.30
2019-01-21T19:57:28.397Z,36.50
2019-01-21T20:00:00.729Z,37.00
2019-01-21T20:02:32.762Z,36.80
2019-01-21T20:05:05.005Z,37.20
2019-01-21T20:07:37.577Z,37.30
2019-01-21T20:10:11.985Z,37.80
2019-01-21T20:12:44.328Z,37.50
2019-01-21T20:15:17.385Z,37.60
2019-01-21T20:17:49.431Z,37.20
2019-01-21T20:20:26.870Z,37.40
2019-01-21T20:22:59.376Z,37.40
2019-01-21T20:25:31.873Z,37.10
2019-01-21T20:28:04.029Z,37.10
2019-01-21T20:30:36.413Z,37.10
2019-01-21T20:33:08.751Z,37.30
2019-01-21T20:35:41.149Z,37.60
2019-01-21T20:38:13.241Z,37.80
2019-01-21T20:40:48.555Z,37.60
2019-01-21T20:43:21.185Z,37.30
2019-01-21T20:45:53.734Z,36.70
2019-01-21T20:48:25.889Z,36.90
2019-01-21T20:50:58.149Z,37.10
2019-01-21T20:53:30.173Z,37.20
2019-01-21T20:58:38.279Z,37.00
2019-01-21T21:01:10.324Z,36.50
2019-01-21T21:03:42.505Z,36.10
2019-01-21T21:06:14.714Z,36.50
2019-01-21T21:08:46.935Z,36.60
2019-01-21T21:11:19.628Z,37.00
2019-01-21T21:13:52.706Z,36.80
2019-01-21T21:16:25.245Z,37.20
2019-01-21T21:18:57.992Z,36.70
2019-01-21T21:21:46.382Z,37.20
2019-01-21T21:24:23.359Z,36.70
2019-01-21T21:26:55.923Z,37.20
2019-01-21T21:29:29.454Z,37.80
2019-01-21T21:32:02.770Z,38.00
2019-01-21T21:34:35.681Z,38.50
2019-01-21T21:37:09.484Z,38.40
2019-01-21T21:39:41.921Z,38.50
2019-01-21T21:42:14.790Z,38.70
2019-01-21T21:44:47.431Z,39.30
2019-01-21T21:47:21.799Z,39.60
2019-01-21T21:49:54.245Z,39.50
2019-01-21T21:52:27.962Z,39.40
2019-01-21T21:55:00.607Z,39.50
2019-01-21T22:03:37.113Z,38.50
2019-01-21T22:06:11.559Z,38.50
2019-01-21T22:08:43.859Z,38.50
2019-01-21T22:11:20.751Z,38.80
2019-01-21T22:14:15.299Z,38.70
2019-01-21T22:20:18.147Z,39.30
2019-01-21T22:25:43.051Z,39.10
2019-01-21T22:28:15.913Z,39.00
2019-01-21T22:30:48.424Z,38.90
2019-01-21T22:33:21.495Z,38.90
2019-01-21T22:35:53.853Z,39.20
2019-01-21T22:41:02.517Z,40.00
2019-01-21T22:43:34.660Z,40.10
2019-01-21T22:46:06.825Z,40.20
2019-01-21T22:48:38.866Z,40.20
2019-01-21T22:51:11.126Z,40.70
2019-01-21T22:53:44.488Z,41.60
2019-01-21T22:56:17.437Z,42.70
2019-01-21T22:58:49.951Z,43.50
2019-01-21T23:01:28.469Z,44.70
2019-01-21T23:04:00.789Z,45.90
2019-01-21T23:06:33.134Z,46.90
2019-01-21T23:09:06.791Z,47.50
2019-01-21T23:11:39.239Z,48.30
2019-01-21T23:14:11.948Z,48.80
2019-01-21T23:16:44.199Z,48.80
2019-01-21T23:19:30.861Z,48.80
2019-01-21T23:22:06.976Z,49.10
2019-01-21T23:24:45.362Z,49.30
2019-01-21T23:27:14.545Z,49.90
2019-01-21T23:29:47.141Z,50.30
2019-01-21T23:32:19.797Z,50.70
2019-01-21T23:34:52.251Z,51.20
2019-01-21T23:37:25.169Z,50.80
2019-01-21T23:39:57.491Z,50.30
2019-01-21T23:42:30.250Z,50.10
2019-01-21T23:45:02.470Z,50.70
2019-01-21T23:47:36.559Z,51.20
2019-01-21T23:50:15.358Z,51.50
2019-01-21T23:52:55.694Z,52.10
2019-01-21T23:55:27.513Z,52.30
2019-01-21T23:58:04.784Z,52.10
